createdAt,value
2016-05-06T00:00:00.023Z,1010.86
2016-05-06T00:01:00.009Z,1010.88
2016-05-06T00:01:59.996Z,1010.9
2016-05-06T00:02:59.984Z,1010.93
2016-05-06T00:03:59.971Z,1010.89
2016-05-06T00:04:59.958Z,1010.93
2016-05-06T00:05:59.944Z,1010.9
2016-05-06T00:06:59.932Z,1010.89
2016-05-06T00:07:59.918Z,1010.87
2016-05-06T00:08:59.906Z,1010.88
2016-05-06T00:09:59.893Z,1010.87
2016-05-06T00:10:59.880Z,1010.88
2016-05-06T00:11:59.866Z,1010.87
2016-05-06T00:12:59.855Z,1010.87
2016-05-06T00:13:59.841Z,1010.88
2016-05-06T00:14:59.829Z,1010.87
2016-05-06T00:15:59.815Z,1010.88
2016-05-06T00:16:59.802Z,1010.92
2016-05-06T00:17:59.789Z,1010.92
2016-05-06T00:18:59.777Z,1010.91
2016-05-06T00:19:59.763Z,1010.92
2016-05-06T00:20:59.743Z,1010.93
2016-05-06T00:21:59.731Z,1010.88
2016-05-06T00:22:59.718Z,1010.87
2016-05-06T00:23:59.705Z,1010.89
2016-05-06T00:24:59.692Z,1010.87
2016-05-06T00:25:59.679Z,1010.87
2016-05-06T00:26:59.666Z,1010.82
2016-05-06T00:27:59.654Z,1010.85
2016-05-06T00:28:59.640Z,1010.83
2016-05-06T00:29:59.627Z,1010.83
2016-05-06T00:30:59.615Z,1010.85
2016-05-06T00:31:59.617Z,1010.86
2016-05-06T00:32:59.792Z,1010.8
2016-05-06T00:33:59.576Z,1010.84
2016-05-06T00:34:59.562Z,1010.77
2016-05-06T00:35:59.551Z,1010.82
2016-05-06T00:36:59.537Z,1010.82
2016-05-06T00:37:59.523Z,1010.8
2016-05-06T00:38:59.511Z,1010.79
2016-05-06T00:39:59.498Z,1010.77
2016-05-06T00:40:59.500Z,1010.79
2016-05-06T00:41:59.472Z,1010.77
2016-05-06T00:42:59.459Z,1010.75
2016-05-06T00:43:59.447Z,1010.73
2016-05-06T00:44:59.449Z,1010.77
2016-05-06T00:45:59.420Z,1010.77
2016-05-06T00:46:59.407Z,1010.73
2016-05-06T00:47:59.394Z,1010.74
2016-05-06T00:48:59.382Z,1010.73
2016-05-06T00:49:59.369Z,1010.74
2016-05-06T00:50:59.355Z,1010.7
2016-05-06T00:51:59.343Z,1010.7
2016-05-06T00:52:59.330Z,1010.69
2016-05-06T00:53:59.317Z,1010.68
2016-05-06T00:54:59.304Z,1010.69
2016-05-06T00:55:59.416Z,1010.71
2016-05-06T00:56:59.279Z,1010.67
2016-05-06T00:57:59.265Z,1010.69
2016-05-06T00:58:59.252Z,1010.65
2016-05-06T00:59:59.239Z,1010.68
2016-05-06T01:00:59.227Z,1010.69
2016-05-06T01:01:59.213Z,1010.69
2016-05-06T01:02:59.201Z,1010.69
2016-05-06T01:03:59.187Z,1010.7
2016-05-06T01:04:59.175Z,1010.66
2016-05-06T01:05:59.162Z,1010.7
2016-05-06T01:06:59.149Z,1010.67
2016-05-06T01:07:59.136Z,1010.66
2016-05-06T01:08:59.107Z,1010.62
2016-05-06T01:09:59.095Z,1010.64
2016-05-06T01:10:59.097Z,1010.64
2016-05-06T01:11:59.084Z,1010.6
2016-05-06T01:12:59.055Z,1010.61
2016-05-06T01:13:59.043Z,1010.59
2016-05-06T01:14:59.030Z,1010.59
2016-05-06T01:15:59.017Z,1010.56
2016-05-06T01:16:59.003Z,1010.54
2016-05-06T01:17:58.991Z,1010.56
2016-05-06T01:18:58.994Z,1010.56
2016-05-06T01:19:58.966Z,1010.54
2016-05-06T01:20:58.952Z,1010.54
2016-05-06T01:21:58.938Z,1010.53
2016-05-06T01:22:58.927Z,1010.54
2016-05-06T01:23:58.913Z,1010.52
2016-05-06T01:24:58.900Z,1010.49
2016-05-06T01:25:59.293Z,1010.47
2016-05-06T01:26:58.875Z,1010.49
2016-05-06T01:27:58.862Z,1010.47
2016-05-06T01:28:58.849Z,1010.5
2016-05-06T01:29:58.835Z,1010.48
2016-05-06T01:30:58.823Z,1010.47
2016-05-06T01:31:58.810Z,1010.48
2016-05-06T01:32:58.796Z,1010.49
2016-05-06T01:33:58.784Z,1010.46
2016-05-06T01:34:58.770Z,1010.46
2016-05-06T01:35:58.759Z,1010.44
2016-05-06T01:36:58.745Z,1010.44
2016-05-06T01:37:58.716Z,1010.45
2016-05-06T01:38:58.719Z,1010.45
2016-05-06T01:39:58.707Z,1010.46
2016-05-06T01:40:58.678Z,1010.48
2016-05-06T01:41:58.664Z,1010.43
2016-05-06T01:42:58.668Z,1010.42
2016-05-06T01:43:58.639Z,1010.42
2016-05-06T01:44:58.626Z,1010.39
2016-05-06T01:45:58.613Z,1010.38
2016-05-06T01:46:58.600Z,1010.37
2016-05-06T01:47:58.587Z,1010.38
2016-05-06T01:48:58.575Z,1010.35
2016-05-06T01:49:58.561Z,1010.34
2016-05-06T01:50:58.548Z,1010.35
2016-05-06T01:51:58.536Z,1010.31
2016-05-06T01:52:58.523Z,1010.33
2016-05-06T01:53:58.510Z,1010.32
2016-05-06T01:54:58.496Z,1010.33
2016-05-06T01:55:58.484Z,1010.31
2016-05-06T01:56:58.471Z,1010.27
2016-05-06T01:57:58.458Z,1010.27
2016-05-06T01:58:58.445Z,1010.26
2016-05-06T01:59:58.432Z,1010.28
2016-05-06T02:00:58.419Z,1010.24
2016-05-06T02:01:58.406Z,1010.23
2016-05-06T02:02:58.393Z,1010.22
2016-05-06T02:03:58.379Z,1010.18
2016-05-06T02:04:58.368Z,1010.21
2016-05-06T02:05:58.354Z,1010.2
2016-05-06T02:06:58.342Z,1010.19
2016-05-06T02:07:58.328Z,1010.19
2016-05-06T02:08:58.300Z,1010.19
2016-05-06T02:09:58.287Z,1010.21
2016-05-06T02:10:58.289Z,1010.2
2016-05-06T02:11:58.276Z,1010.21
2016-05-06T02:12:58.264Z,1010.23
2016-05-06T02:13:58.236Z,1010.19
2016-05-06T02:14:58.222Z,1010.17
2016-05-06T02:15:58.209Z,1010.22
2016-05-06T02:16:58.197Z,1010.19
2016-05-06T02:17:58.200Z,1010.2
2016-05-06T02:18:58.170Z,1010.16
2016-05-06T02:19:58.158Z,1010.17
2016-05-06T02:20:58.145Z,1010.15
2016-05-06T02:21:58.132Z,1010.13
2016-05-06T02:22:58.119Z,1010.16
2016-05-06T02:23:58.094Z,1010.15
2016-05-06T02:24:58.081Z,1010.12
2016-05-06T02:25:58.100Z,1010.07
2016-05-06T02:26:58.056Z,1010.06
2016-05-06T02:27:58.042Z,1010.06
2016-05-06T02:28:58.029Z,1010.01
2016-05-06T02:29:58.016Z,1010
2016-05-06T02:30:58.004Z,1010
2016-05-06T02:31:57.991Z,1009.97
2016-05-06T02:32:58.180Z,1009.94
2016-05-06T02:33:57.964Z,1009.93
2016-05-06T02:34:57.952Z,1009.93
2016-05-06T02:35:57.939Z,1009.91
2016-05-06T02:36:57.925Z,1009.92
2016-05-06T02:37:57.914Z,1009.9
2016-05-06T02:38:57.900Z,1009.92
2016-05-06T02:39:57.872Z,1009.91
2016-05-06T02:40:57.874Z,1009.92
2016-05-06T02:41:57.860Z,1009.91
2016-05-06T02:42:57.832Z,1009.91
2016-05-06T02:43:57.820Z,1009.89
2016-05-06T02:44:57.807Z,1009.85
2016-05-06T02:45:57.793Z,1009.84
2016-05-06T02:46:57.782Z,1009.84
2016-05-06T02:47:57.768Z,1009.83
2016-05-06T02:48:57.754Z,1009.84
2016-05-06T02:49:57.742Z,1009.83
2016-05-06T02:50:57.730Z,1009.86
2016-05-06T02:51:57.732Z,1009.85
2016-05-06T02:52:57.703Z,1009.88
2016-05-06T02:53:57.691Z,1009.87
2016-05-06T02:54:57.677Z,1009.84
2016-05-06T02:55:57.649Z,1009.87
2016-05-06T02:56:57.651Z,1009.86
2016-05-06T02:57:57.639Z,1009.87
2016-05-06T02:58:57.626Z,1009.89
2016-05-06T02:59:57.598Z,1009.87
2016-05-06T03:00:57.584Z,1009.89
2016-05-06T03:01:57.571Z,1009.84
2016-05-06T03:02:57.559Z,1009.89
2016-05-06T03:03:57.545Z,1009.89
2016-05-06T03:04:57.533Z,1009.84
2016-05-06T03:05:57.519Z,1009.85
2016-05-06T03:06:57.506Z,1009.84
2016-05-06T03:07:57.494Z,1009.83
2016-05-06T03:08:57.480Z,1009.84
2016-05-06T03:09:57.468Z,1009.81
2016-05-06T03:10:57.455Z,1009.81
2016-05-06T03:11:57.442Z,1009.78
2016-05-06T03:12:57.429Z,1009.79
2016-05-06T03:13:57.416Z,1009.78
2016-05-06T03:14:57.402Z,1009.79
2016-05-06T03:15:57.375Z,1009.8
2016-05-06T03:16:57.362Z,1009.72
2016-05-06T03:17:57.349Z,1009.76
2016-05-06T03:18:57.335Z,1009.69
2016-05-06T03:19:57.323Z,1009.65
2016-05-06T03:20:57.310Z,1009.65
2016-05-06T03:21:57.296Z,1009.61
2016-05-06T03:22:57.284Z,1009.66
2016-05-06T03:23:57.271Z,1009.63
2016-05-06T03:24:57.259Z,1009.66
2016-05-06T03:25:57.229Z,1009.67
2016-05-06T03:26:57.217Z,1009.66
2016-05-06T03:27:57.220Z,1009.66
2016-05-06T03:28:57.190Z,1009.64
2016-05-06T03:29:57.178Z,1009.69
2016-05-06T03:30:57.165Z,1009.67
2016-05-06T03:31:57.152Z,1009.62
2016-05-06T03:32:57.139Z,1009.62
2016-05-06T03:33:57.126Z,1009.62
2016-05-06T03:34:57.113Z,1009.6
2016-05-06T03:35:57.100Z,1009.57
2016-05-06T03:36:57.087Z,1009.55
2016-05-06T03:37:57.075Z,1009.6
2016-05-06T03:38:57.061Z,1009.56
2016-05-06T03:39:57.049Z,1009.51
2016-05-06T03:40:57.061Z,1009.53
2016-05-06T03:41:57.015Z,1009.51
2016-05-06T03:42:57.002Z,1009.49
2016-05-06T03:43:56.971Z,1009.53
2016-05-06T03:44:56.963Z,1009.49
2016-05-06T03:45:56.950Z,1009.49
2016-05-06T03:46:56.922Z,1009.48
2016-05-06T03:47:56.909Z,1009.48
2016-05-06T03:48:56.896Z,1009.46
2016-05-06T03:49:56.914Z,1009.44
2016-05-06T03:50:56.870Z,1009.42
2016-05-06T03:51:56.857Z,1009.44
2016-05-06T03:52:56.844Z,1009.42
2016-05-06T03:53:56.831Z,1009.38
2016-05-06T03:54:56.819Z,1009.4
2016-05-06T03:55:56.805Z,1009.35
2016-05-06T03:56:56.793Z,1009.33
2016-05-06T03:57:56.779Z,1009.26
2016-05-06T03:58:56.751Z,1009.25
2016-05-06T03:59:56.754Z,1009.3
2016-05-06T04:00:56.726Z,1009.25
2016-05-06T04:01:56.712Z,1009.27
2016-05-06T04:02:56.698Z,1009.24
2016-05-06T04:03:56.687Z,1009.27
2016-05-06T04:04:56.673Z,1009.23
2016-05-06T04:05:56.660Z,1009.23
2016-05-06T04:06:56.648Z,1009.24
2016-05-06T04:07:56.635Z,1009.26
2016-05-06T04:08:56.622Z,1009.21
2016-05-06T04:09:56.592Z,1009.21
2016-05-06T04:10:56.581Z,1009.2
2016-05-06T04:11:56.566Z,1009.21
2016-05-06T04:12:56.555Z,1009.11
2016-05-06T04:13:56.541Z,1009.17
2016-05-06T04:14:56.528Z,1009.15
2016-05-06T04:15:56.516Z,1009.11
2016-05-06T04:16:56.502Z,1009.16
2016-05-06T04:17:56.489Z,1009.18
2016-05-06T04:18:56.476Z,1009.12
2016-05-06T04:19:56.449Z,1009.17
2016-05-06T04:20:56.435Z,1009.1
2016-05-06T04:21:56.422Z,1009.13
2016-05-06T04:22:56.409Z,1009.16
2016-05-06T04:23:56.396Z,1009.14
2016-05-06T04:24:56.383Z,1009.07
2016-05-06T04:25:56.370Z,1009.12
2016-05-06T04:26:56.357Z,1009.16
2016-05-06T04:27:56.345Z,1009.12
2016-05-06T04:28:56.332Z,1009.11
2016-05-06T04:29:56.303Z,1009.14
2016-05-06T04:30:56.290Z,1009.17
2016-05-06T04:31:56.277Z,1009.13
2016-05-06T04:32:56.468Z,1009.06
2016-05-06T04:33:56.251Z,1009.1
2016-05-06T04:34:56.239Z,1009.09
2016-05-06T04:35:56.226Z,1009.07
2016-05-06T04:36:56.212Z,1009.06
2016-05-06T04:37:56.200Z,1009.09
2016-05-06T04:38:56.186Z,1009.07
2016-05-06T04:39:56.158Z,1009.08
2016-05-06T04:40:56.489Z,1009.06
2016-05-06T04:41:56.133Z,1009.09
2016-05-06T04:42:56.119Z,1009.09
2016-05-06T04:43:56.106Z,1009.07
2016-05-06T04:44:56.094Z,1009.07
2016-05-06T04:45:56.080Z,1009.05
2016-05-06T04:46:56.083Z,1009.06
2016-05-06T04:47:56.039Z,1009.09
2016-05-06T04:48:56.042Z,1009.05
2016-05-06T04:49:56.013Z,1009.04
2016-05-06T04:50:56.016Z,1009.05
2016-05-06T04:51:55.987Z,1009.04
2016-05-06T04:52:55.974Z,1009.09
2016-05-06T04:53:55.961Z,1009.07
2016-05-06T04:54:55.949Z,1009.04
2016-05-06T04:55:56.201Z,1009.03
2016-05-06T04:56:55.923Z,1009.07
2016-05-06T04:57:55.910Z,1009.05
2016-05-06T04:58:55.896Z,1009.06
2016-05-06T04:59:55.868Z,1009.05
2016-05-06T05:00:55.854Z,1009.07
2016-05-06T05:01:55.843Z,1009.03
2016-05-06T05:02:55.829Z,1009.05
2016-05-06T05:03:55.816Z,1009
2016-05-06T05:04:55.804Z,1009.01
2016-05-06T05:05:55.790Z,1009
2016-05-06T05:06:55.778Z,1009.04
2016-05-06T05:07:55.764Z,1009.01
2016-05-06T05:08:55.752Z,1009.03
2016-05-06T05:09:55.739Z,1009.02
2016-05-06T05:10:55.749Z,1009.02
2016-05-06T05:11:55.783Z,1009.01
2016-05-06T05:12:55.817Z,1009
2016-05-06T05:13:55.836Z,1008.98
2016-05-06T05:14:55.870Z,1008.98
2016-05-06T05:15:55.889Z,1008.99
2016-05-06T05:16:55.894Z,1009.04
2016-05-06T05:17:55.898Z,1009.03
2016-05-06T05:18:55.902Z,1009.02
2016-05-06T05:19:55.905Z,1008.98
2016-05-06T05:20:55.904Z,1009.01
2016-05-06T05:21:55.898Z,1009.01
2016-05-06T05:22:55.907Z,1009.06
2016-05-06T05:23:55.883Z,1009.04
2016-05-06T05:24:55.862Z,1009.02
2016-05-06T05:25:55.853Z,1009.04
2016-05-06T05:26:55.859Z,1009.03
2016-05-06T05:27:55.831Z,1008.98
2016-05-06T05:28:55.822Z,1009.03
2016-05-06T05:29:55.810Z,1009
2016-05-06T05:30:55.798Z,1008.97
2016-05-06T05:31:55.787Z,1009
2016-05-06T05:32:55.774Z,1009
2016-05-06T05:33:55.763Z,1008.97
2016-05-06T05:34:55.750Z,1008.94
2016-05-06T05:35:55.738Z,1008.98
2016-05-06T05:36:55.725Z,1008.94
2016-05-06T05:37:55.713Z,1009
2016-05-06T05:38:55.700Z,1008.99
2016-05-06T05:39:55.688Z,1009
2016-05-06T05:40:55.660Z,1008.98
2016-05-06T05:41:55.647Z,1008.96
2016-05-06T05:42:55.633Z,1008.97
2016-05-06T05:43:55.621Z,1008.97
2016-05-06T05:44:55.608Z,1008.98
2016-05-06T05:45:55.594Z,1008.96
2016-05-06T05:46:55.582Z,1008.96
2016-05-06T05:47:55.569Z,1008.94
2016-05-06T05:48:55.557Z,1008.96
2016-05-06T05:49:55.543Z,1009
2016-05-06T05:50:55.530Z,1008.99
2016-05-06T05:51:55.517Z,1009.01
2016-05-06T05:52:55.504Z,1009.03
2016-05-06T05:53:55.491Z,1008.95
2016-05-06T05:54:55.479Z,1008.97
2016-05-06T05:55:55.606Z,1008.98
2016-05-06T05:56:55.453Z,1008.95
2016-05-06T05:57:55.721Z,1008.92
2016-05-06T05:58:55.426Z,1008.93
2016-05-06T05:59:55.414Z,1008.86
2016-05-06T06:00:55.401Z,1008.87
2016-05-06T06:01:55.387Z,1008.92
2016-05-06T06:02:55.375Z,1008.89
2016-05-06T06:03:55.362Z,1008.88
2016-05-06T06:04:55.333Z,1008.88
2016-05-06T06:05:55.320Z,1008.88
2016-05-06T06:06:55.323Z,1008.88
2016-05-06T06:07:55.311Z,1008.89
2016-05-06T06:08:55.297Z,1008.88
2016-05-06T06:09:55.269Z,1008.87
2016-05-06T06:10:55.630Z,1008.84
2016-05-06T06:11:55.243Z,1008.81
2016-05-06T06:12:55.230Z,1008.82
2016-05-06T06:13:55.217Z,1008.82
2016-05-06T06:14:55.220Z,1008.79
2016-05-06T06:15:55.191Z,1008.79
2016-05-06T06:16:55.177Z,1008.77
2016-05-06T06:17:55.166Z,1008.77
2016-05-06T06:18:55.152Z,1008.72
2016-05-06T06:19:55.140Z,1008.72
2016-05-06T06:20:55.127Z,1008.75
2016-05-06T06:21:55.113Z,1008.73
2016-05-06T06:22:55.116Z,1008.77
2016-05-06T06:23:55.087Z,1008.75
2016-05-06T06:24:55.091Z,1008.71
2016-05-06T06:25:55.077Z,1008.69
2016-05-06T06:26:55.049Z,1008.69
2016-05-06T06:27:55.051Z,1008.67
2016-05-06T06:28:55.023Z,1008.65
2016-05-06T06:29:55.025Z,1008.6
2016-05-06T06:30:55.013Z,1008.66
2016-05-06T06:31:55.000Z,1008.6
2016-05-06T06:32:55.220Z,1008.62
2016-05-06T06:33:54.974Z,1008.62
2016-05-06T06:34:54.961Z,1008.6
2016-05-06T06:35:54.947Z,1008.55
2016-05-06T06:36:54.936Z,1008.57
2016-05-06T06:37:54.922Z,1008.51
2016-05-06T06:38:54.909Z,1008.51
2016-05-06T06:39:54.897Z,1008.55
2016-05-06T06:40:55.164Z,1008.54
2016-05-06T06:41:54.870Z,1008.55
2016-05-06T06:42:54.857Z,1008.55
2016-05-06T06:43:54.844Z,1008.57
2016-05-06T06:44:54.832Z,1008.55
2016-05-06T06:45:54.819Z,1008.51
2016-05-06T06:46:54.806Z,1008.51
2016-05-06T06:47:54.793Z,1008.49
2016-05-06T06:48:54.780Z,1008.55
2016-05-06T06:49:54.766Z,1008.46
2016-05-06T06:50:54.769Z,1008.46
2016-05-06T06:51:54.741Z,1008.48
2016-05-06T06:52:54.744Z,1008.47
2016-05-06T06:53:54.715Z,1008.47
2016-05-06T06:54:54.718Z,1008.43
2016-05-06T06:55:54.704Z,1008.43
2016-05-06T06:56:54.692Z,1008.45
2016-05-06T06:57:54.679Z,1008.45
2016-05-06T06:58:54.665Z,1008.44
2016-05-06T06:59:54.654Z,1008.41
2016-05-06T07:00:54.640Z,1008.43
2016-05-06T07:01:54.628Z,1008.37
2016-05-06T07:02:54.615Z,1008.36
2016-05-06T07:03:54.617Z,1008.33
2016-05-06T07:04:54.603Z,1008.34
2016-05-06T07:05:54.591Z,1008.31
2016-05-06T07:06:54.578Z,1008.26
2016-05-06T07:07:54.565Z,1008.29
2016-05-06T07:08:54.552Z,1008.27
2016-05-06T07:09:54.556Z,1008.28
2016-05-06T07:10:54.542Z,1008.24
2016-05-06T07:11:54.513Z,1008.25
2016-05-06T07:12:54.500Z,1008.22
2016-05-06T07:13:54.488Z,1008.21
2016-05-06T07:14:54.474Z,1008.19
2016-05-06T07:15:54.477Z,1008.18
2016-05-06T07:16:54.464Z,1008.18
2016-05-06T07:17:54.452Z,1008.19
2016-05-06T07:18:54.439Z,1008.22
2016-05-06T07:19:54.426Z,1008.2
2016-05-06T07:20:54.413Z,1008.18
2016-05-06T07:21:54.415Z,1008.15
2016-05-06T07:22:54.392Z,1008.15
2016-05-06T07:23:54.379Z,1008.15
2016-05-06T07:24:54.365Z,1008.16
2016-05-06T07:25:54.353Z,1008.12
2016-05-06T07:26:54.340Z,1008.13
2016-05-06T07:27:54.343Z,1008.13
2016-05-06T07:28:54.329Z,1008.09
2016-05-06T07:29:54.317Z,1008.04
2016-05-06T07:30:54.304Z,1008.06
2016-05-06T07:31:54.292Z,1008
2016-05-06T07:32:54.279Z,1008.06
2016-05-06T07:33:54.265Z,1008.05
2016-05-06T07:34:54.267Z,1008.02
2016-05-06T07:35:54.255Z,1007.96
2016-05-06T07:36:54.258Z,1008
2016-05-06T07:37:54.228Z,1007.95
2016-05-06T07:38:54.216Z,1007.94
2016-05-06T07:39:54.203Z,1007.95
2016-05-06T07:40:54.191Z,1007.92
2016-05-06T07:41:54.193Z,1007.91
2016-05-06T07:42:54.180Z,1007.98
2016-05-06T07:43:54.167Z,1007.93
2016-05-06T07:44:54.154Z,1007.9
2016-05-06T07:45:54.141Z,1007.89
2016-05-06T07:46:54.144Z,1007.91
2016-05-06T07:47:54.130Z,1007.91
2016-05-06T07:48:54.119Z,1007.91
2016-05-06T07:49:54.105Z,1007.9
2016-05-06T07:50:54.092Z,1007.85
2016-05-06T07:51:54.095Z,1007.84
2016-05-06T07:52:54.082Z,1007.85
2016-05-06T07:53:54.068Z,1007.84
2016-05-06T07:54:54.056Z,1007.83
2016-05-06T07:55:54.043Z,1007.8
2016-05-06T07:56:54.030Z,1007.81
2016-05-06T07:57:54.032Z,1007.83
2016-05-06T07:58:54.021Z,1007.84
2016-05-06T07:59:54.007Z,1007.85
2016-05-06T08:00:53.994Z,1007.86
2016-05-06T08:01:53.981Z,1007.85
2016-05-06T08:02:53.984Z,1007.82
2016-05-06T08:03:53.970Z,1007.77
2016-05-06T08:04:53.958Z,1007.82
2016-05-06T08:05:53.945Z,1007.79
2016-05-06T08:06:53.932Z,1007.81
2016-05-06T08:07:53.934Z,1007.83
2016-05-06T08:08:53.922Z,1007.88
2016-05-06T08:09:53.909Z,1007.87
2016-05-06T08:10:53.942Z,1007.85
2016-05-06T08:11:54.336Z,1007.81
2016-05-06T08:12:53.885Z,1007.79
2016-05-06T08:13:53.889Z,1007.81
2016-05-06T08:14:53.875Z,1007.86
2016-05-06T08:15:53.878Z,1007.91
2016-05-06T08:16:53.865Z,1007.87
2016-05-06T08:17:53.868Z,1007.88
2016-05-06T08:18:53.855Z,1007.87
2016-05-06T08:19:53.857Z,1007.85
2016-05-06T08:20:53.844Z,1007.85
2016-05-06T08:21:53.847Z,1007.85
2016-05-06T08:22:53.835Z,1007.86
2016-05-06T08:23:53.837Z,1007.9
2016-05-06T08:24:53.840Z,1007.81
2016-05-06T08:25:54.327Z,1007.87
2016-05-06T08:26:53.829Z,1007.82
2016-05-06T08:27:53.832Z,1007.84
2016-05-06T08:28:53.835Z,1007.84
2016-05-06T08:29:53.822Z,1007.82
2016-05-06T08:30:53.825Z,1007.82
2016-05-06T08:31:53.828Z,1007.83
2016-05-06T08:32:54.034Z,1007.84
2016-05-06T08:33:53.833Z,1007.79
2016-05-06T08:34:53.820Z,1007.82
2016-05-06T08:35:53.823Z,1007.85
2016-05-06T08:36:53.825Z,1007.9
2016-05-06T08:37:53.828Z,1007.89
2016-05-06T08:38:53.830Z,1007.89
2016-05-06T08:39:53.818Z,1007.91
2016-05-06T08:40:53.820Z,1007.92
2016-05-06T08:41:53.823Z,1007.9
2016-05-06T08:42:53.825Z,1007.84
2016-05-06T08:43:53.828Z,1007.85
2016-05-06T08:44:53.831Z,1007.85
2016-05-06T08:45:53.833Z,1007.84
2016-05-06T08:46:53.821Z,1007.83
2016-05-06T08:47:53.839Z,1007.8
2016-05-06T08:48:53.826Z,1007.74
2016-05-06T08:49:53.829Z,1007.71
2016-05-06T08:50:53.832Z,1007.81
2016-05-06T08:51:53.834Z,1007.81
2016-05-06T08:52:53.838Z,1007.79
2016-05-06T08:53:54.043Z,1007.77
2016-05-06T08:54:53.827Z,1007.84
2016-05-06T08:55:54.360Z,1007.83
2016-05-06T08:56:54.207Z,1007.84
2016-05-06T08:57:53.835Z,1007.82
2016-05-06T08:58:53.838Z,1007.82
2016-05-06T08:59:53.840Z,1007.85
2016-05-06T09:00:53.843Z,1007.79
2016-05-06T09:01:53.845Z,1007.82
2016-05-06T09:02:53.833Z,1007.83
2016-05-06T09:03:53.835Z,1007.79
2016-05-06T09:04:53.838Z,1007.82
2016-05-06T09:05:53.840Z,1007.77
2016-05-06T09:06:53.843Z,1007.83
2016-05-06T09:07:53.830Z,1007.82
2016-05-06T09:08:53.833Z,1007.79
2016-05-06T09:09:53.836Z,1007.82
2016-05-06T09:10:53.839Z,1007.78
2016-05-06T09:11:53.842Z,1007.77
2016-05-06T09:12:53.844Z,1007.77
2016-05-06T09:13:53.831Z,1007.76
2016-05-06T09:14:53.833Z,1007.73
2016-05-06T09:15:53.836Z,1007.67
2016-05-06T09:16:53.839Z,1007.81
2016-05-06T09:17:53.827Z,1008
2016-05-06T09:18:53.829Z,1007.87
2016-05-06T09:19:53.832Z,1007.84
2016-05-06T09:20:53.834Z,1007.81
2016-05-06T09:21:53.838Z,1007.85
2016-05-06T09:22:53.824Z,1007.87
2016-05-06T09:23:53.826Z,1007.92
2016-05-06T09:24:53.830Z,1007.88
2016-05-06T09:25:53.833Z,1007.66
2016-05-06T09:26:53.819Z,1007.66
2016-05-06T09:27:53.822Z,1007.63
2016-05-06T09:28:53.824Z,1007.68
2016-05-06T09:29:53.827Z,1007.74
2016-05-06T09:30:53.829Z,1007.78
2016-05-06T09:31:53.817Z,1007.77
2016-05-06T09:32:53.820Z,1007.69
2016-05-06T09:33:53.823Z,1007.65
2016-05-06T09:34:53.826Z,1007.63
2016-05-06T09:35:53.812Z,1007.59
2016-05-06T09:36:53.815Z,1007.65
2016-05-06T09:37:53.818Z,1007.55
2016-05-06T09:38:53.820Z,1007.57
2016-05-06T09:39:53.823Z,1007.5
2016-05-06T09:40:53.810Z,1007.47
2016-05-06T09:41:53.812Z,1007.46
2016-05-06T09:42:53.815Z,1007.44
2016-05-06T09:43:53.818Z,1007.44
2016-05-06T09:44:53.806Z,1007.4
2016-05-06T09:45:53.808Z,1007.5
2016-05-06T09:46:53.811Z,1007.51
2016-05-06T09:47:53.814Z,1007.66
2016-05-06T09:48:53.800Z,1007.61
2016-05-06T09:49:53.802Z,1007.52
2016-05-06T09:50:53.791Z,1007.71
2016-05-06T09:51:53.793Z,1007.49
2016-05-06T09:52:53.796Z,1007.43
2016-05-06T09:53:53.799Z,1007.45
2016-05-06T09:54:53.801Z,1007.45
2016-05-06T09:55:53.788Z,1007.4
2016-05-06T09:56:53.791Z,1007.39
2016-05-06T09:57:53.793Z,1007.39
2016-05-06T09:58:53.796Z,1007.39
2016-05-06T09:59:53.782Z,1007.5
2016-05-06T10:00:53.802Z,1007.47
2016-05-06T10:01:53.788Z,1007.37
2016-05-06T10:02:53.775Z,1007.3
2016-05-06T10:03:53.779Z,1007.27
2016-05-06T10:04:53.781Z,1007.31
2016-05-06T10:05:53.783Z,1007.34
2016-05-06T10:06:53.771Z,1007.38
2016-05-06T10:07:53.773Z,1007.34
2016-05-06T10:08:53.776Z,1007.32
2016-05-06T10:09:53.779Z,1007.36
2016-05-06T10:10:53.781Z,1007.32
2016-05-06T10:11:53.784Z,1007.35
2016-05-06T10:12:53.787Z,1007.37
2016-05-06T10:13:53.790Z,1007.36
2016-05-06T10:14:53.792Z,1007.37
2016-05-06T10:15:53.795Z,1007.39
2016-05-06T10:16:53.797Z,1007.44
2016-05-06T10:17:53.800Z,1007.4
2016-05-06T10:18:53.803Z,1007.42
2016-05-06T10:19:53.789Z,1007.41
2016-05-06T10:20:53.809Z,1007.38
2016-05-06T10:21:53.795Z,1007.41
2016-05-06T10:22:53.814Z,1007.45
2016-05-06T10:23:53.800Z,1007.45
2016-05-06T10:24:53.818Z,1007.4
2016-05-06T10:25:53.822Z,1007.42
2016-05-06T10:26:53.824Z,1007.44
2016-05-06T10:27:53.827Z,1007.5
2016-05-06T10:28:53.830Z,1007.47
2016-05-06T10:29:53.832Z,1007.41
2016-05-06T10:30:53.835Z,1007.39
2016-05-06T10:31:53.838Z,1007.45
2016-05-06T10:32:54.044Z,1007.39
2016-05-06T10:33:53.843Z,1007.4
2016-05-06T10:34:53.846Z,1007.35
2016-05-06T10:35:53.864Z,1007.29
2016-05-06T10:36:53.851Z,1007.33
2016-05-06T10:37:53.854Z,1007.31
2016-05-06T10:38:53.856Z,1007.33
2016-05-06T10:39:53.859Z,1007.34
2016-05-06T10:40:53.878Z,1007.23
2016-05-06T10:41:53.881Z,1007.21
2016-05-06T10:42:53.883Z,1007.2
2016-05-06T10:43:53.886Z,1007.21
2016-05-06T10:44:53.889Z,1007.14
2016-05-06T10:45:53.891Z,1007.13
2016-05-06T10:46:53.894Z,1007.13
2016-05-06T10:47:53.897Z,1007.09
2016-05-06T10:48:53.899Z,1007.06
2016-05-06T10:49:53.918Z,1007.12
2016-05-06T10:50:53.920Z,1007.05
2016-05-06T10:51:53.922Z,1007.04
2016-05-06T10:52:53.925Z,1006.98
2016-05-06T10:53:53.928Z,1006.96
2016-05-06T10:54:53.931Z,1006.98
2016-05-06T10:55:53.934Z,1007.01
2016-05-06T10:56:54.249Z,1006.97
2016-05-06T10:57:53.939Z,1006.94
2016-05-06T10:58:53.957Z,1006.86
2016-05-06T10:59:53.961Z,1006.88
2016-05-06T11:00:53.962Z,1006.89
2016-05-06T11:01:53.966Z,1006.87
2016-05-06T11:02:53.968Z,1006.87
2016-05-06T11:03:53.971Z,1006.83
2016-05-06T11:04:53.973Z,1006.83
2016-05-06T11:05:53.976Z,1006.8
2016-05-06T11:06:53.995Z,1006.75
2016-05-06T11:07:53.998Z,1006.73
2016-05-06T11:08:54.000Z,1006.73
2016-05-06T11:09:54.003Z,1006.73
2016-05-06T11:10:54.006Z,1006.69
2016-05-06T11:11:54.009Z,1006.71
2016-05-06T11:12:54.011Z,1006.69
2016-05-06T11:13:54.014Z,1006.74
2016-05-06T11:14:54.032Z,1006.69
2016-05-06T11:15:54.034Z,1006.66
2016-05-06T11:16:54.037Z,1006.71
2016-05-06T11:17:54.040Z,1006.64
2016-05-06T11:18:54.042Z,1006.68
2016-05-06T11:19:54.045Z,1006.66
2016-05-06T11:20:54.064Z,1006.63
2016-05-06T11:21:54.067Z,1006.64
2016-05-06T11:22:54.069Z,1006.58
2016-05-06T11:23:54.071Z,1006.56
2016-05-06T11:24:54.075Z,1006.52
2016-05-06T11:25:54.077Z,1006.51
2016-05-06T11:26:54.080Z,1006.55
2016-05-06T11:27:54.098Z,1006.48
2016-05-06T11:28:54.100Z,1006.43
2016-05-06T11:29:54.103Z,1006.44
2016-05-06T11:30:54.138Z,1006.38
2016-05-06T11:31:54.124Z,1006.39
2016-05-06T11:32:54.111Z,1006.42
2016-05-06T11:33:54.114Z,1006.42
2016-05-06T11:34:54.132Z,1006.4
2016-05-06T11:35:54.136Z,1006.44
2016-05-06T11:36:54.138Z,1006.4
2016-05-06T11:37:54.140Z,1006.36
2016-05-06T11:38:54.144Z,1006.37
2016-05-06T11:39:54.146Z,1006.42
2016-05-06T11:40:54.165Z,1006.36
2016-05-06T11:41:54.167Z,1006.36
2016-05-06T11:42:54.170Z,1006.34
2016-05-06T11:43:54.173Z,1006.32
2016-05-06T11:44:54.175Z,1006.3
2016-05-06T11:45:54.178Z,1006.31
2016-05-06T11:46:54.181Z,1006.36
2016-05-06T11:47:54.183Z,1006.29
2016-05-06T11:48:54.201Z,1006.27
2016-05-06T11:49:54.204Z,1006.26
2016-05-06T11:50:55.785Z,1006.25
2016-05-06T11:51:54.209Z,1006.23
2016-05-06T11:52:54.212Z,1006.26
2016-05-06T11:53:54.215Z,1006.22
2016-05-06T11:54:54.217Z,1006.26
2016-05-06T11:55:54.220Z,1006.25
2016-05-06T11:56:54.222Z,1006.16
2016-05-06T11:57:54.242Z,1006.17
2016-05-06T11:58:54.572Z,1006.14
2016-05-06T11:59:54.246Z,1006.12
2016-05-06T12:00:54.250Z,1006.15
2016-05-06T12:01:54.252Z,1006.21
2016-05-06T12:02:54.255Z,1006.13
2016-05-06T12:03:54.257Z,1006.12
2016-05-06T12:04:54.261Z,1006.14
2016-05-06T12:05:54.263Z,1006.17
2016-05-06T12:06:54.281Z,1006.07
2016-05-06T12:07:54.285Z,1006.1